createdAt,value
2023-01-05T00:02:16.272Z,100.00
2023-01-05T00:07:22.075Z,100.00
2023-01-05T00:12:43.566Z,100.00
2023-01-05T00:18:05.598Z,100.00
2023-01-05T00:23:09.475Z,100.00
2023-01-05T00:28:12.976Z,100.00
2023-01-05T00:33:18.404Z,100.00
2023-01-05T00:38:21.438Z,100.00
2023-01-05T00:43:25.053Z,100.00
2023-01-05T00:48:29.527Z,100.00
2023-01-05T00:53:33.039Z,100.00
2023-01-05T00:58:36.659Z,100.00
2023-01-05T01:03:40.261Z,100.00
2023-01-05T01:08:43.737Z,100.00
2023-01-05T01:13:47.442Z,100.00
2023-01-05T01:18:51.239Z,100.00
2023-01-05T01:23:54.934Z,100.00
2023-01-05T01:28:58.564Z,100.00
2023-01-05T01:34:01.887Z,100.00
2023-01-05T01:39:05.271Z,100.00
2023-01-05T01:44:48.354Z,100.00
2023-01-05T01:49:55.706Z,100.00
2023-01-05T01:55:00.203Z,100.00
2023-01-05T02:00:07.087Z,100.00
2023-01-05T02:05:25.013Z,100.00
2023-01-05T02:10:49.695Z,100.00
2023-01-05T02:16:16.796Z,100.00
2023-01-05T02:22:01.709Z,100.00
2023-01-05T02:27:21.356Z,100.00
2023-01-05T02:32:43.606Z,100.00
2023-01-05T02:38:00.155Z,100.00
2023-01-05T02:43:06.616Z,100.00
2023-01-05T02:48:10.722Z,100.00
2023-01-05T02:53:18.440Z,100.00
2023-01-05T02:58:31.988Z,100.00
2023-01-05T03:03:58.595Z,100.00
2023-01-05T03:09:06.554Z,100.00
2023-01-05T03:14:23.061Z,100.00
2023-01-05T03:19:36.504Z,100.00
2023-01-05T03:25:01.205Z,100.00
2023-01-05T03:30:25.088Z,100.00
2023-01-05T03:35:36.428Z,100.00
2023-01-05T03:40:41.403Z,100.00
2023-01-05T03:45:54.098Z,100.00
2023-01-05T03:51:01.452Z,100.00
2023-01-05T03:56:07.422Z,100.00
2023-01-05T04:01:11.854Z,100.00
2023-01-05T04:06:16.816Z,100.00
2023-01-05T04:11:23.513Z,100.00
2023-01-05T04:16:37.304Z,100.00
2023-01-05T04:21:49.177Z,100.00
2023-01-05T04:26:52.867Z,100.00
2023-01-05T04:32:00.815Z,100.00
2023-01-05T04:37:04.698Z,100.00
2023-01-05T04:42:10.589Z,100.00
2023-01-05T04:47:14.677Z,100.00
2023-01-05T04:52:19.639Z,100.00
2023-01-05T04:57:23.552Z,100.00
2023-01-05T05:02:29.807Z,100.00
2023-01-05T05:07:35.058Z,100.00
2023-01-05T05:12:40.427Z,100.00
2023-01-05T05:17:43.705Z,100.00
2023-01-05T05:22:49.328Z,100.00
2023-01-05T05:27:56.164Z,100.00
2023-01-05T05:32:59.728Z,100.00
2023-01-05T05:38:03.249Z,100.00
2023-01-05T05:43:06.960Z,100.00
2023-01-05T05:48:10.723Z,100.00
2023-01-05T05:53:15.104Z,100.00
2023-01-05T05:58:19.742Z,100.00
2023-01-05T06:03:23.343Z,100.00
2023-01-05T06:08:29.684Z,100.00
2023-01-05T06:13:33.180Z,100.00
2023-01-05T06:18:36.891Z,100.00
2023-01-05T06:23:40.458Z,100.00
2023-01-05T06:28:43.844Z,100.00
2023-01-05T06:33:48.874Z,100.00
2023-01-05T06:38:52.459Z,100.00
2023-01-05T06:43:55.557Z,100.00
2023-01-05T06:48:59.182Z,100.00
2023-01-05T06:54:03.203Z,100.00
2023-01-05T06:59:06.438Z,100.00
2023-01-05T07:04:10.160Z,100.00
2023-01-05T07:09:13.496Z,100.00
2023-01-05T07:14:16.725Z,100.00
2023-01-05T07:19:20.883Z,100.00
2023-01-05T07:24:24.194Z,67.61
2023-01-05T07:29:27.509Z,56.28
2023-01-05T07:34:31.054Z,49.54
2023-01-05T07:39:34.527Z,42.71
2023-01-05T07:44:38.267Z,36.50
2023-01-05T07:49:41.774Z,36.45
2023-01-05T07:54:45.576Z,36.14
2023-01-05T07:59:49.174Z,32.68
2023-01-05T08:04:52.859Z,29.74
2023-01-05T08:10:14.812Z,31.52
2023-01-05T08:15:18.276Z,35.87
2023-01-05T08:20:22.313Z,33.85
2023-01-05T08:25:25.858Z,33.04
2023-01-05T08:30:29.091Z,33.40
2023-01-05T08:35:32.435Z,31.97
2023-01-05T08:40:38.156Z,33.58
2023-01-05T08:45:42.238Z,32.11
2023-01-05T08:50:46.020Z,30.60
2023-01-05T08:55:49.126Z,33.34
2023-01-05T09:00:53.735Z,33.81
2023-01-05T09:06:02.817Z,31.86
2023-01-05T09:11:11.429Z,33.37
2023-01-05T09:16:24.845Z,31.01
2023-01-05T09:21:42.008Z,30.13
2023-01-05T09:26:46.225Z,31.92
2023-01-05T09:31:49.861Z,32.09
2023-01-05T09:36:53.606Z,35.21
2023-01-05T09:42:02.151Z,33.98
2023-01-05T09:47:32.962Z,32.30
2023-01-05T09:52:38.575Z,31.47
2023-01-05T09:57:43.491Z,32.96
2023-01-05T10:02:49.246Z,33.03
2023-01-05T10:08:01.286Z,33.52
2023-01-05T10:13:07.388Z,33.43
2023-01-05T10:18:14.999Z,34.04
2023-01-05T10:23:46.244Z,34.92
2023-01-05T10:28:58.680Z,32.53
2023-01-05T10:34:40.168Z,35.60
2023-01-05T10:40:34.883Z,40.44
2023-01-05T10:45:57.199Z,44.77
2023-01-05T10:51:03.295Z,46.05
2023-01-05T10:56:23.421Z,48.66
2023-01-05T11:01:31.965Z,49.59
2023-01-05T11:06:37.584Z,52.20
2023-01-05T11:11:42.799Z,53.12
2023-01-05T11:16:53.911Z,53.69
2023-01-05T11:22:01.945Z,56.95
2023-01-05T11:27:20.516Z,57.08
2023-01-05T11:32:24.516Z,57.68
2023-01-05T11:37:29.891Z,56.62
2023-01-05T11:42:38.662Z,57.26
2023-01-05T11:47:52.521Z,56.60
2023-01-05T11:53:01.117Z,56.19
2023-01-05T11:58:18.036Z,55.92
2023-01-05T12:03:28.234Z,58.32
2023-01-05T12:08:41.222Z,58.02
2023-01-05T12:13:59.218Z,59.41
2023-01-05T12:19:11.179Z,57.99
2023-01-05T12:24:29.935Z,60.92
2023-01-05T12:35:58.717Z,60.73
2023-01-05T12:41:23.865Z,58.80
2023-01-05T12:46:37.902Z,58.76
2023-01-05T12:51:54.803Z,59.70
2023-01-05T12:57:04.971Z,59.52
2023-01-05T13:02:40.907Z,61.05
2023-01-05T13:08:16.487Z,60.66
2023-01-05T13:13:32.338Z,60.71
2023-01-05T13:18:42.142Z,62.19
2023-01-05T13:23:51.149Z,60.47
2023-01-05T13:29:02.452Z,61.14
2023-01-05T13:34:25.083Z,60.97
2023-01-05T13:39:33.946Z,61.43
2023-01-05T13:44:52.689Z,61.74
2023-01-05T13:50:04.888Z,60.41
2023-01-05T13:55:25.029Z,61.86
2023-01-05T14:00:34.343Z,61.68
2023-01-05T14:05:54.433Z,62.16
2023-01-05T14:11:17.897Z,61.76
2023-01-05T14:16:39.794Z,61.45
2023-01-05T14:21:59.987Z,60.95
2023-01-05T14:27:20.809Z,61.93
2023-01-05T14:32:33.125Z,62.84
2023-01-05T14:37:52.750Z,62.11
2023-01-05T14:42:56.487Z,61.50
2023-01-05T14:48:04.020Z,63.13
2023-01-05T14:53:10.489Z,63.96
2023-01-05T14:58:36.469Z,63.95
2023-01-05T15:04:08.905Z,66.43
2023-01-05T15:09:30.954Z,68.16
2023-01-05T15:14:59.257Z,69.45
2023-01-05T15:20:20.974Z,70.80
2023-01-05T15:25:53.231Z,69.75
2023-01-05T15:31:46.324Z,70.42
2023-01-05T15:37:15.884Z,70.99
2023-01-05T15:42:36.040Z,72.32
2023-01-05T15:47:40.637Z,70.63
2023-01-05T15:52:53.717Z,71.37
2023-01-05T15:58:04.151Z,69.68
2023-01-05T16:03:32.281Z,70.26
2023-01-05T16:08:41.717Z,68.51
2023-01-05T16:13:55.469Z,69.67
2023-01-05T16:19:03.857Z,71.59
2023-01-05T16:24:35.597Z,72.63
2023-01-05T16:29:47.290Z,73.59
2023-01-05T16:34:50.525Z,72.27
2023-01-05T16:40:02.435Z,73.33
2023-01-05T16:45:26.295Z,75.09
2023-01-05T16:50:30.035Z,75.38
2023-01-05T16:55:38.032Z,75.45
2023-01-05T17:00:41.689Z,75.73
2023-01-05T17:05:45.421Z,75.91
2023-01-05T17:10:50.001Z,76.23
2023-01-05T17:15:54.114Z,76.43
2023-01-05T17:20:58.913Z,76.22
2023-01-05T17:26:09.480Z,76.42
2023-01-05T17:36:25.572Z,75.65
2023-01-05T17:41:29.087Z,77.28
2023-01-05T17:46:36.897Z,77.44
2023-01-05T17:51:41.011Z,78.68
2023-01-05T17:56:44.251Z,79.31
2023-01-05T18:01:49.339Z,79.75
2023-01-05T18:06:54.832Z,80.16
2023-01-05T18:11:58.007Z,80.28
2023-01-05T18:17:02.085Z,80.33
2023-01-05T18:22:06.115Z,80.84
2023-01-05T18:27:10.549Z,81.00
2023-01-05T18:32:13.889Z,81.51
2023-01-05T18:37:21.750Z,80.48
2023-01-05T18:42:25.205Z,82.10
2023-01-05T18:47:28.766Z,84.15
2023-01-05T18:52:32.790Z,85.01
2023-01-05T18:57:36.704Z,85.80
2023-01-05T19:02:41.291Z,84.75
2023-01-05T19:07:44.936Z,82.44
2023-01-05T19:12:48.265Z,82.17
2023-01-05T19:17:53.642Z,81.82
2023-01-05T19:22:57.245Z,82.28
2023-01-05T19:28:02.249Z,80.56
2023-01-05T19:33:05.560Z,80.78
2023-01-05T19:38:11.283Z,79.51
2023-01-05T19:43:14.330Z,78.18
2023-01-05T19:48:18.498Z,78.64
2023-01-05T19:53:22.313Z,77.20
2023-01-05T19:58:25.441Z,77.58
2023-01-05T20:03:29.166Z,78.33
2023-01-05T20:08:33.511Z,80.06
2023-01-05T20:13:37.255Z,79.71
2023-01-05T20:18:40.922Z,80.18
2023-01-05T20:23:44.531Z,80.48
2023-01-05T20:28:48.867Z,80.89
2023-01-05T20:33:53.877Z,82.21
2023-01-05T20:38:58.492Z,83.19
2023-01-05T20:44:02.255Z,84.55
2023-01-05T20:49:07.250Z,85.91
2023-01-05T20:54:11.493Z,87.26
2023-01-05T20:59:19.579Z,88.59
2023-01-05T21:04:25.886Z,89.27
2023-01-05T21:09:31.149Z,89.83
2023-01-05T21:14:34.462Z,90.08
2023-01-05T21:19:39.404Z,90.41
2023-01-05T21:24:42.723Z,90.09
2023-01-05T21:29:45.782Z,90.33
2023-01-05T21:34:49.059Z,90.39
2023-01-05T21:39:52.680Z,90.93
2023-01-05T21:44:56.087Z,91.40
2023-01-05T21:49:59.277Z,91.53
2023-01-05T21:55:31.764Z,91.26
2023-01-05T22:00:35.772Z,91.79
2023-01-05T22:05:39.475Z,92.18
2023-01-05T22:10:43.428Z,92.76
2023-01-05T22:15:47.112Z,92.42
2023-01-05T22:20:59.255Z,92.84
2023-01-05T22:26:06.932Z,93.54
2023-01-05T22:31:12.124Z,93.84
2023-01-05T22:36:18.237Z,94.63
2023-01-05T22:41:26.122Z,95.02
2023-01-05T22:46:30.919Z,95.38
2023-01-05T22:51:37.707Z,95.76
2023-01-05T22:56:41.079Z,95.90
2023-01-05T23:01:45.573Z,96.47
2023-01-05T23:06:48.699Z,96.36
2023-01-05T23:11:51.893Z,96.47
2023-01-05T23:16:55.103Z,96.69
2023-01-05T23:21:58.166Z,97.32
2023-01-05T23:27:02.045Z,97.67
2023-01-05T23:32:06.204Z,98.06
2023-01-05T23:37:09.656Z,98.66
2023-01-05T23:42:32.557Z,98.72
2023-01-05T23:47:35.980Z,99.10
2023-01-05T23:52:39.286Z,98.78
2023-01-05T23:57:42.839Z,98.97
